Anza Borrego Desert State Park, California Weather observations

Data are for 10 minute period ending at time listed.
 Day   Time   Solar   Ave.   Ave.  Ave.  Vector  Max.   Baro.   Total    
  of    of     Rad.   Air    Rel.  Wind   Wind   Wind  Press.  Precip.   
Year   Day            Temp.  Hum.  Speed  Dir.   Gust                    
2017   (PST)  Kw/m2    F      %     mph   deg.    mph    mb.     in.     
-------------------------------------------------------------------------
 113    3:00   0.00   65.5    23    3.1   253     5.6   977.3    0.00 
 113    3:10   0.00   65.3    24    1.0   319     2.5   977.2    0.00 
 113    3:20   0.00   67.8    22    2.9   268     6.4   977.1    0.00 
 113    3:30   0.00   65.8    23    6.8   258     7.7   977.0    0.00 
 113    3:40   0.00   65.7    23    3.3   288     6.3   977.0    0.00 
 113    3:50   0.00   64.8    24    5.0   255     7.6   977.1    0.00 
 113    4:00   0.00   66.1    23    4.8   204     7.1   977.1    0.00 
 113    4:10   0.00   65.8    23    5.0   218     7.3   977.1    0.00 
 113    4:20   0.00   66.9    22    5.3   230     7.2   977.1    0.00 
 113    4:30   0.00   68.7    20    5.5   228     6.7   977.1    0.00 
 113    4:40   0.00   66.2    23    5.2   213     6.6   977.1    0.00 
 113    4:50   0.00   67.5    22    4.3   221     6.9   977.1    0.00 
 113    5:00   0.00   66.5    22    4.4   237     6.9   977.1    0.00 
 113    5:10   0.01   65.9    23    6.5   244     9.0   977.3    0.00 
 113    5:20   0.02   67.8    22    7.3   241     9.2   977.3    0.00 
 113    5:30   0.04   69.0    21    5.4   225     7.8   977.5    0.00 
 113    5:40   0.05   70.5    20    6.7   246     8.6   977.7    0.00 
 113    5:50   0.07   70.3    21    5.3   231     7.5   977.7    0.00 
 113    6:00   0.08   71.7    21    4.5   251     5.8   977.8    0.00 
 113    6:10   0.09   73.1    20    2.9   231     4.4   977.9    0.00 
 113    6:20   0.12   74.2    20    2.4   162     3.5   978.0    0.00 
 113    6:30   0.17   75.5    20    3.7   194     5.1   978.0    0.00 
 113    6:40   0.21   79.1    18    2.2   179     4.7   978.0    0.00 
 113    6:50   0.21   80.2    16    4.9   151     6.7   978.1    0.00 
 113    7:00   0.25   81.2    16    2.2   207     4.5   978.1    0.00 
 113    7:10   0.33   81.8    15    3.0   205     5.6   978.1    0.00 
 113    7:20   0.41   82.7    15    4.1   164     6.7   977.9    0.00 
 113    7:30   0.52   84.5    14    3.6   193     5.7   977.9    0.00 
 113    7:40   0.49   85.8    14    2.5   137     5.0   977.9    0.00 
 113    7:50   0.35   84.6    14    1.2   149     3.2   977.8    0.00 
 113    8:00   0.37   85.0    14    2.0   224     5.1   977.8    0.00 
 113    8:10   0.40   85.7    13    1.7   300     3.9   977.6    0.00 
 113    8:20   0.34   85.7    12    2.9    93     5.2   977.7    0.00 
 113    8:30   0.28   85.5    12    1.0   157     3.1   977.8    0.00 
 113    8:40   0.33   85.9    12    1.4   137     3.1   977.8    0.00 
 113    8:50   0.39   86.5    12    1.6   144     4.4   977.8    0.00 
 113    9:00   0.53   87.5    11    2.5    58     4.3   977.8    0.00 
 113    9:10   0.80   88.2    11    4.0   112     7.3   977.9    0.00 
 113    9:20   0.70   89.5    10    3.1   211     7.7   978.0    0.00 
 113    9:30   0.84   91.1    10    1.8   296     6.4   978.0    0.00 
 113    9:40   0.70   90.9    10    2.8   307     9.1   978.1    0.00 
 113    9:50   0.68   89.1    12   11.3   314    19.6   978.1    0.00 
 113   10:00   0.78   88.1    13   10.7   325    19.1   978.1    0.00 
 113   10:10   0.88   89.6    13    5.4   321    17.8   978.2    0.00 
 113   10:20   0.72   89.8    12    7.6   317    13.3   978.0    0.00 
 113   10:30   0.88   90.4    13    7.4    46    13.7   977.9    0.00 
 113   10:40   0.94   90.3    13   10.9   326    20.0   977.9    0.00 
 113   10:50   0.93   89.8    14   10.8   316    18.7   977.9    0.00 
 113   11:00   0.96   89.7    14   13.9   319    23.4   977.8    0.00 
 113   11:10   0.96   90.1    15   11.7   307    21.4   977.9    0.00 
 113   11:20   0.96   89.7    16   11.7   320    21.3   977.8    0.00 
 113   11:30   0.97   90.0    18   10.3   325    21.0   977.7    0.00 
 113   11:40   0.97   91.0    18    7.5   314    16.5   977.7    0.00 
 113   11:50   0.97   90.3    19    9.9   320    20.8   977.6    0.00 
 113   12:00   0.97   91.0    19    8.1   315    23.2   977.6    0.00 
 113   12:10   0.96   90.4    19    8.9   266    19.6   977.6    0.00 
 113   12:20   0.95   91.1    19    4.9   251    11.0   977.6    0.00 
 113   12:30   0.95   90.9    19    9.0   302    20.0   977.5    0.00 
 113   12:40   0.91   90.9    19    7.9   233    20.5   977.5    0.00 
 113   12:50   0.93   90.9    19   12.9   255    33.1   977.4    0.00 
 113   13:00   0.93   90.5    19   20.6   232    36.0   977.3    0.00 
 113   13:10   0.91   90.4    19   18.7   239    29.0   977.3    0.00 
 113   13:20   0.90   90.0    17   23.5   234    36.5   977.1    0.00 
 113   13:30   0.88   90.4    16   21.2   239    30.9   976.9    0.00 
 113   13:40   0.88   90.2    14   18.8   231    31.4   977.1    0.00 
 113   13:50   0.87   90.2    10   19.2   232    34.7   977.0    0.00 
 113   14:00   0.84   90.4     9   18.8   223    26.5   977.0    0.00 
 113   14:10   0.81   90.7    11   13.5   231    26.9   976.7    0.00 
 113   14:20   0.79   90.5    12    7.3   275    18.0   976.6    0.00 
 113   14:30   0.77   90.8    11    8.2   304    16.4   976.6    0.00 
 113   14:40   0.74   90.0    14   10.1   245    23.8   976.6    0.00 
 113   14:50   0.71   90.1    13    7.4   280    16.3   976.5    0.00 
 113   15:00   0.68   90.1    14    9.2   244    18.4   976.5    0.00 
 113   15:10   0.65   89.8    12    9.0   299    20.5   976.5    0.00 
 113   15:20   0.62   88.2    11   13.8   311    23.5   976.4    0.00 
 113   15:30   0.58   88.3    14    9.8   249    16.7   976.4    0.00 
 113   15:40   0.55   88.1    14   11.2   226    21.5   976.4    0.00 
 113   15:50   0.51   87.7    14   16.5   230    24.9   976.2    0.00 
 113   16:00   0.48   87.2    14   14.8   227    22.5   976.0    0.00 
 113   16:10   0.44   86.9    16   16.2   225    27.4   975.7    0.00 
 113   16:20   0.41   86.5    16   15.8   227    24.2   975.6    0.00 
 113   16:30   0.37   85.9    16   15.7   221    31.8   975.3    0.00 
 113   16:40   0.35   86.4    16    9.8   218    17.8   975.2    0.00 
 113   16:50   0.31   87.4    16    6.5   268    18.6   975.3    0.00 
 113   17:00   0.27   86.3    17   10.4   234    27.0   975.1    0.00 
 113   17:10   0.22   85.1    18    9.5   234    17.3   975.1    0.00 
 113   17:20   0.06   82.7    20   12.5   228    20.2   974.9    0.00 
 113   17:30   0.05   81.5    19    7.2   239    15.9   974.9    0.00 
 113   17:40   0.05   80.9    21    3.8     0     8.0   974.8    0.00 
 113   17:50   0.04   80.7    21    5.0    10    10.7   974.8    0.00 
 113   18:00   0.04   80.2    21    3.1   360     9.9   974.8    0.00 
 113   18:10   0.02   79.9    19    6.8   337    16.4   974.8    0.00 
 113   18:20   0.01   78.9    19    9.6   351    15.1   974.9    0.00 
 113   18:30   0.00   78.7    18    8.0   359    14.5   974.8    0.00 
 113   18:40   0.00   78.6    16    6.5    40    13.2   974.9    0.00 
 113   18:50   0.00   77.8    16    4.8    42    10.6   975.0    0.00 
 113   19:00   0.00   78.0    14    4.3     6     8.8   975.2    0.00 
 113   19:10   0.00   77.2    14    4.8   122    11.0   975.4    0.00 
 113   19:20   0.00   77.3    12    6.4    38    12.7   975.5    0.00 
 113   19:30   0.00   76.8    12    4.0   340    12.1   975.8    0.00 
 113   19:40   0.00   76.6    11    4.2   329    14.9   976.1    0.00 
 113   19:50   0.00   76.4    10    3.7   342    11.1   976.3    0.00 
 113   20:00   0.00   76.3     8    6.1   319    15.7   976.4    0.00 
 113   20:10   0.00   75.2     8    2.4   257     6.6   976.6    0.00 
 113   20:20   0.00   76.0     8    4.0   103     8.4   976.7    0.00 
 113   20:30   0.00   75.8     8    3.9   246     8.0   976.7    0.00 
 113   20:40   0.00   76.0     8    3.3   305     8.8   976.8    0.00 
 113   20:50   0.00   76.7     8    7.0   330    13.7   976.9    0.00 
 113   21:00   0.00   76.3     8    8.0   348    14.0   976.9    0.00 
 113   21:10   0.00   76.2     8    8.8   357    14.7   976.9    0.00 
 113   21:20   0.00   75.8     9    6.6   334    12.4   976.9    0.00 
 113   21:30   0.00   76.3     8    6.3   359    12.9   976.9    0.00 
 113   21:40   0.00   75.0     9    9.7    10    15.3   976.8    0.00 
 113   21:50   0.00   74.2    10    4.0    76     9.9   976.9    0.00 
 113   22:00   0.00   71.6    12    4.6   174     7.0   976.9    0.00 
 113   22:10   0.00   72.0    12    2.8   228     5.3   976.8    0.00 
 113   22:20   0.00   72.2    12    3.1   150     5.3   976.8    0.00 
 113   22:30   0.00   70.6    15    4.7   119     6.6   976.6    0.00 
 113   22:40   0.00   69.0    16    5.3   106     8.6   976.6    0.00 
 113   22:50   0.00   70.0    18    4.3    93     6.9   976.6    0.00 
 113   23:00   0.00   68.3    19    4.3   170     7.4   976.6    0.00 
 113   23:10   0.00   69.8    19    7.9   126    11.8   976.5    0.00 
 113   23:20   0.00   70.2    20    7.7   124    11.8   976.5    0.00 
 113   23:30   0.00   69.5    20    4.5   168     8.7   976.6    0.00 
 113   23:40   0.00   67.9    21    4.7   241     7.2   976.5    0.00 
 113   23:50   0.00   67.4    22    3.1   241     5.6   976.5    0.00 
 114    0:00   0.00   68.1    21    3.1   258     5.4   976.5    0.00 
 114    0:10   0.00   68.3    21    2.5   246     5.9   976.6    0.00 
 114    0:20   0.00   66.1    22    5.1   207     7.5   976.6    0.00 
 114    0:30   0.00   64.1    23    4.4   228     8.0   976.6    0.00 
 114    0:40   0.00   64.3    23    2.0   206     7.8   976.3    0.00 
 114    0:50   0.00   63.3    23    2.8   238     4.4   976.2    0.00 
 114    1:00   0.00   63.3    24    4.0   255     7.6   976.0    0.00 
 114    1:10   0.00   63.7    23    7.3   222     8.8   975.9    0.00 
 114    1:20   0.00   63.4    23    5.8   229     7.2   975.6    0.00 
 114    1:30   0.00   62.7    24    4.7   247     7.7   975.4    0.00 
 114    1:40   0.00   63.2    24    1.1   236     4.5   975.4    0.00 
 114    1:50   0.00   61.5    25    3.7   218     5.7   975.4    0.00 
 114    2:00   0.00   61.8    24    5.2   259     8.8   975.4    0.00 
 114    2:10   0.00   63.4    23    5.8   250     6.5   975.4    0.00 
 114    2:20   0.00   62.8    23    6.6   272     8.5   975.4    0.00 
 114    2:30   0.00   64.7    22    6.0   246    10.2   975.3    0.00 
 114    2:40   0.00   65.3    21    5.2   266     7.6   975.3    0.00 
 114    2:50   0.00   67.1    20    2.5   257     4.2   975.3    0.00 

Return to Anza Borrego Desert State Park graphs page.


Western Regional Climate Center,wrcc@dri.edu